sensor_id;sensor_type;location;lat;lon;timestamp;temperature;humidity
10062;DHT22;5070;52.382;5.270;2023-12-29T00:00:03;18.30;64.20
10062;DHT22;5070;52.382;5.270;2023-12-29T00:02:31;18.30;64.30
10062;DHT22;5070;52.382;5.270;2023-12-29T00:05:01;18.30;64.00
10062;DHT22;5070;52.382;5.270;2023-12-29T00:07:29;18.40;63.90
10062;DHT22;5070;52.382;5.270;2023-12-29T00:09:57;18.40;63.70
10062;DHT22;5070;52.382;5.270;2023-12-29T00:12:25;18.50;63.60
10062;DHT22;5070;52.382;5.270;2023-12-29T00:14:53;18.60;63.40
10062;DHT22;5070;52.382;5.270;2023-12-29T00:17:21;18.60;63.00
10062;DHT22;5070;52.382;5.270;2023-12-29T00:19:49;18.70;63.00
10062;DHT22;5070;52.382;5.270;2023-12-29T00:22:18;18.80;62.80
10062;DHT22;5070;52.382;5.270;2023-12-29T00:24:47;18.80;62.60
10062;DHT22;5070;52.382;5.270;2023-12-29T00:27:15;18.90;62.80
10062;DHT22;5070;52.382;5.270;2023-12-29T00:29:43;18.80;63.00
10062;DHT22;5070;52.382;5.270;2023-12-29T00:32:11;18.80;63.10
10062;DHT22;5070;52.382;5.270;2023-12-29T00:34:39;18.80;63.30
10062;DHT22;5070;52.382;5.270;2023-12-29T00:37:07;18.80;63.50
10062;DHT22;5070;52.382;5.270;2023-12-29T00:39:37;18.80;63.70
10062;DHT22;5070;52.382;5.270;2023-12-29T00:42:07;18.70;63.30
10062;DHT22;5070;52.382;5.270;2023-12-29T00:44:35;18.70;63.30
10062;DHT22;5070;52.382;5.270;2023-12-29T00:47:03;18.80;63.30
10062;DHT22;5070;52.382;5.270;2023-12-29T00:49:31;18.70;63.30
10062;DHT22;5070;52.382;5.270;2023-12-29T00:51:59;18.70;63.30
10062;DHT22;5070;52.382;5.270;2023-12-29T00:54:29;18.60;63.50
10062;DHT22;5070;52.382;5.270;2023-12-29T00:56:59;18.60;63.70
10062;DHT22;5070;52.382;5.270;2023-12-29T00:59:26;18.60;64.00
10062;DHT22;5070;52.382;5.270;2023-12-29T01:01:54;18.60;64.00
10062;DHT22;5070;52.382;5.270;2023-12-29T01:04:23;18.50;64.10
10062;DHT22;5070;52.382;5.270;2023-12-29T01:06:51;18.50;64.30
10062;DHT22;5070;52.382;5.270;2023-12-29T01:09:20;18.50;64.40
10062;DHT22;5070;52.382;5.270;2023-12-29T01:11:48;18.50;64.60
10062;DHT22;5070;52.382;5.270;2023-12-29T01:14:17;18.50;64.60
10062;DHT22;5070;52.382;5.270;2023-12-29T01:16:45;18.50;64.70
10062;DHT22;5070;52.382;5.270;2023-12-29T01:19:13;18.40;64.80
10062;DHT22;5070;52.382;5.270;2023-12-29T01:21:41;18.40;65.00
10062;DHT22;5070;52.382;5.270;2023-12-29T01:24:10;18.40;65.00
10062;DHT22;5070;52.382;5.270;2023-12-29T01:26:41;18.40;65.80
10062;DHT22;5070;52.382;5.270;2023-12-29T01:29:09;18.40;65.10
10062;DHT22;5070;52.382;5.270;2023-12-29T01:31:39;18.40;65.30
10062;DHT22;5070;52.382;5.270;2023-12-29T01:34:07;18.30;65.30
10062;DHT22;5070;52.382;5.270;2023-12-29T01:36:36;18.30;65.30
10062;DHT22;5070;52.382;5.270;2023-12-29T01:39:04;18.40;65.20
10062;DHT22;5070;52.382;5.270;2023-12-29T01:41:32;18.40;64.60
10062;DHT22;5070;52.382;5.270;2023-12-29T01:44:18;18.40;64.40
10062;DHT22;5070;52.382;5.270;2023-12-29T01:46:49;18.50;64.20
10062;DHT22;5070;52.382;5.270;2023-12-29T01:49:19;18.50;64.10
10062;DHT22;5070;52.382;5.270;2023-12-29T01:51:50;18.60;64.00
10062;DHT22;5070;52.382;5.270;2023-12-29T01:54:19;18.70;63.90
10062;DHT22;5070;52.382;5.270;2023-12-29T01:56:48;18.70;63.70
10062;DHT22;5070;52.382;5.270;2023-12-29T01:59:19;18.70;63.60
10062;DHT22;5070;52.382;5.270;2023-12-29T02:01:55;18.70;63.70
10062;DHT22;5070;52.382;5.270;2023-12-29T02:04:24;18.70;63.70
10062;DHT22;5070;52.382;5.270;2023-12-29T02:06:53;18.80;63.80
10062;DHT22;5070;52.382;5.270;2023-12-29T02:09:22;18.70;63.80
10062;DHT22;5070;52.382;5.270;2023-12-29T02:11:50;18.70;63.90
10062;DHT22;5070;52.382;5.270;2023-12-29T02:14:19;18.70;63.70
10062;DHT22;5070;52.382;5.270;2023-12-29T02:16:56;18.70;63.60
10062;DHT22;5070;52.382;5.270;2023-12-29T02:19:37;18.70;63.60
10062;DHT22;5070;52.382;5.270;2023-12-29T02:22:07;18.70;63.70
10062;DHT22;5070;52.382;5.270;2023-12-29T02:24:35;18.60;63.90
10062;DHT22;5070;52.382;5.270;2023-12-29T02:27:12;18.60;64.00
10062;DHT22;5070;52.382;5.270;2023-12-29T02:29:53;18.60;64.10
10062;DHT22;5070;52.382;5.270;2023-12-29T02:32:25;18.60;64.30
10062;DHT22;5070;52.382;5.270;2023-12-29T02:34:55;18.50;64.40
10062;DHT22;5070;52.382;5.270;2023-12-29T02:37:24;18.50;64.50
10062;DHT22;5070;52.382;5.270;2023-12-29T02:39:54;18.50;64.60
10062;DHT22;5070;52.382;5.270;2023-12-29T02:42:23;18.50;64.70
10062;DHT22;5070;52.382;5.270;2023-12-29T02:44:52;18.50;64.90
10062;DHT22;5070;52.382;5.270;2023-12-29T02:47:20;18.40;64.90
10062;DHT22;5070;52.382;5.270;2023-12-29T02:49:48;18.40;64.90
10062;DHT22;5070;52.382;5.270;2023-12-29T02:52:17;18.40;65.00
10062;DHT22;5070;52.382;5.270;2023-12-29T02:54:45;18.40;65.10
10062;DHT22;5070;52.382;5.270;2023-12-29T02:57:13;18.40;65.20
10062;DHT22;5070;52.382;5.270;2023-12-29T02:59:42;18.40;65.30
10062;DHT22;5070;52.382;5.270;2023-12-29T03:02:10;18.40;65.40
10062;DHT22;5070;52.382;5.270;2023-12-29T03:04:38;18.30;65.30
10062;DHT22;5070;52.382;5.270;2023-12-29T03:07:06;18.30;65.50
10062;DHT22;5070;52.382;5.270;2023-12-29T03:09:34;18.30;65.50
10062;DHT22;5070;52.382;5.270;2023-12-29T03:12:03;18.30;65.50
10062;DHT22;5070;52.382;5.270;2023-12-29T03:14:32;18.30;65.60
10062;DHT22;5070;52.382;5.270;2023-12-29T03:17:02;18.30;65.20
10062;DHT22;5070;52.382;5.270;2023-12-29T03:19:30;18.40;65.10
10062;DHT22;5070;52.382;5.270;2023-12-29T03:21:59;18.50;65.00
10062;DHT22;5070;52.382;5.270;2023-12-29T03:24:28;18.50;64.80
10062;DHT22;5070;52.382;5.270;2023-12-29T03:26:56;18.60;64.80
10062;DHT22;5070;52.382;5.270;2023-12-29T03:29:24;18.60;64.50
10062;DHT22;5070;52.382;5.270;2023-12-29T03:31:53;18.70;64.30
10062;DHT22;5070;52.382;5.270;2023-12-29T03:34:22;18.80;64.20
10062;DHT22;5070;52.382;5.270;2023-12-29T03:36:50;18.80;64.10
10062;DHT22;5070;52.382;5.270;2023-12-29T03:39:18;18.80;64.20
10062;DHT22;5070;52.382;5.270;2023-12-29T03:41:46;18.80;64.20
10062;DHT22;5070;52.382;5.270;2023-12-29T03:44:15;18.80;64.40
10062;DHT22;5070;52.382;5.270;2023-12-29T03:46:44;18.70;64.50
10062;DHT22;5070;52.382;5.270;2023-12-29T03:49:12;18.70;64.60
10062;DHT22;5070;52.382;5.270;2023-12-29T03:51:41;18.70;64.30
10062;DHT22;5070;52.382;5.270;2023-12-29T03:54:09;18.70;64.20
10062;DHT22;5070;52.382;5.270;2023-12-29T03:56:37;18.70;64.20
10062;DHT22;5070;52.382;5.270;2023-12-29T03:59:06;18.70;64.10
10062;DHT22;5070;52.382;5.270;2023-12-29T04:01:34;18.70;64.20
10062;DHT22;5070;52.382;5.270;2023-12-29T04:04:02;18.60;64.10
10062;DHT22;5070;52.382;5.270;2023-12-29T04:06:30;18.60;64.30
10062;DHT22;5070;52.382;5.270;2023-12-29T04:09:00;18.60;64.30
10062;DHT22;5070;52.382;5.270;2023-12-29T04:11:28;18.60;64.30
10062;DHT22;5070;52.382;5.270;2023-12-29T04:13:56;18.50;64.30
10062;DHT22;5070;52.382;5.270;2023-12-29T04:16:24;18.50;64.30
10062;DHT22;5070;52.382;5.270;2023-12-29T04:18:51;18.50;64.30
10062;DHT22;5070;52.382;5.270;2023-12-29T04:21:20;18.50;64.20
10062;DHT22;5070;52.382;5.270;2023-12-29T04:23:48;18.50;64.20
10062;DHT22;5070;52.382;5.270;2023-12-29T04:26:17;18.50;64.10
10062;DHT22;5070;52.382;5.270;2023-12-29T04:28:45;18.40;63.90
10062;DHT22;5070;52.382;5.270;2023-12-29T04:31:13;18.40;63.90
10062;DHT22;5070;52.382;5.270;2023-12-29T04:33:41;18.40;63.80
10062;DHT22;5070;52.382;5.270;2023-12-29T04:36:09;18.40;63.80
10062;DHT22;5070;52.382;5.270;2023-12-29T04:38:37;18.40;63.70
10062;DHT22;5070;52.382;5.270;2023-12-29T04:41:06;18.40;63.80
10062;DHT22;5070;52.382;5.270;2023-12-29T04:43:36;18.40;63.70
10062;DHT22;5070;52.382;5.270;2023-12-29T04:46:04;18.30;63.70
10062;DHT22;5070;52.382;5.270;2023-12-29T04:48:32;18.30;63.70
10062;DHT22;5070;52.382;5.270;2023-12-29T04:51:00;18.40;63.80
10062;DHT22;5070;52.382;5.270;2023-12-29T04:53:28;18.40;63.90
10062;DHT22;5070;52.382;5.270;2023-12-29T04:55:56;18.40;63.80
10062;DHT22;5070;52.382;5.270;2023-12-29T04:58:24;18.50;63.70
10062;DHT22;5070;52.382;5.270;2023-12-29T05:00:53;18.50;63.40
10062;DHT22;5070;52.382;5.270;2023-12-29T05:03:21;18.60;63.30
10062;DHT22;5070;52.382;5.270;2023-12-29T05:05:49;18.60;62.90
10062;DHT22;5070;52.382;5.270;2023-12-29T05:08:17;18.70;62.80
10062;DHT22;5070;52.382;5.270;2023-12-29T05:10:45;18.70;62.80
10062;DHT22;5070;52.382;5.270;2023-12-29T05:13:13;18.80;62.90
10062;DHT22;5070;52.382;5.270;2023-12-29T05:15:41;18.70;63.00
10062;DHT22;5070;52.382;5.270;2023-12-29T05:18:10;18.70;62.90
10062;DHT22;5070;52.382;5.270;2023-12-29T05:20:38;18.70;63.00
10062;DHT22;5070;52.382;5.270;2023-12-29T05:23:06;18.70;63.20
10062;DHT22;5070;52.382;5.270;2023-12-29T05:25:34;18.70;63.20
10062;DHT22;5070;52.382;5.270;2023-12-29T05:28:02;18.70;63.00
10062;DHT22;5070;52.382;5.270;2023-12-29T05:30:30;18.70;62.90
10062;DHT22;5070;52.382;5.270;2023-12-29T05:32:59;18.70;63.00
10062;DHT22;5070;52.382;5.270;2023-12-29T05:35:28;18.70;63.00
10062;DHT22;5070;52.382;5.270;2023-12-29T05:37:56;18.70;63.00
10062;DHT22;5070;52.382;5.270;2023-12-29T05:40:25;18.60;63.00
10062;DHT22;5070;52.382;5.270;2023-12-29T05:42:53;18.60;63.10
10062;DHT22;5070;52.382;5.270;2023-12-29T05:45:21;18.60;64.00
10062;DHT22;5070;52.382;5.270;2023-12-29T05:47:49;18.60;63.30
10062;DHT22;5070;52.382;5.270;2023-12-29T05:50:17;18.50;63.30
10062;DHT22;5070;52.382;5.270;2023-12-29T05:52:47;18.50;63.30
10062;DHT22;5070;52.382;5.270;2023-12-29T05:55:18;18.50;63.30
10062;DHT22;5070;52.382;5.270;2023-12-29T05:57:46;18.50;63.30
10062;DHT22;5070;52.382;5.270;2023-12-29T06:00:15;18.50;63.30
10062;DHT22;5070;52.382;5.270;2023-12-29T06:02:43;18.50;63.40
10062;DHT22;5070;52.382;5.270;2023-12-29T06:05:12;18.40;63.40
10062;DHT22;5070;52.382;5.270;2023-12-29T06:07:40;18.40;63.40
10062;DHT22;5070;52.382;5.270;2023-12-29T06:10:10;18.40;63.50
10062;DHT22;5070;52.382;5.270;2023-12-29T06:12:39;18.40;63.50
10062;DHT22;5070;52.382;5.270;2023-12-29T06:15:08;18.40;63.70
10062;DHT22;5070;52.382;5.270;2023-12-29T06:17:38;18.40;64.50
10062;DHT22;5070;52.382;5.270;2023-12-29T06:20:08;18.30;63.80
10062;DHT22;5070;52.382;5.270;2023-12-29T06:22:39;18.30;63.80
10062;DHT22;5070;52.382;5.270;2023-12-29T06:25:10;18.30;63.90
10062;DHT22;5070;52.382;5.270;2023-12-29T06:27:39;18.30;64.00
10062;DHT22;5070;52.382;5.270;2023-12-29T06:30:08;18.30;64.10
10062;DHT22;5070;52.382;5.270;2023-12-29T06:32:37;18.20;64.10
10062;DHT22;5070;52.382;5.270;2023-12-29T06:35:07;18.30;64.30
10062;DHT22;5070;52.382;5.270;2023-12-29T06:37:37;18.30;64.20
10062;DHT22;5070;52.382;5.270;2023-12-29T06:40:06;18.40;63.90
10062;DHT22;5070;52.382;5.270;2023-12-29T06:42:36;18.40;63.70
10062;DHT22;5070;52.382;5.270;2023-12-29T06:45:05;18.40;63.50
10062;DHT22;5070;52.382;5.270;2023-12-29T06:47:35;18.50;63.40
10062;DHT22;5070;52.382;5.270;2023-12-29T06:50:04;18.60;63.20
10062;DHT22;5070;52.382;5.270;2023-12-29T06:52:34;18.60;63.10
10062;DHT22;5070;52.382;5.270;2023-12-29T06:55:02;18.60;62.90
10062;DHT22;5070;52.382;5.270;2023-12-29T06:57:30;18.70;63.20
10062;DHT22;5070;52.382;5.270;2023-12-29T06:59:59;18.70;63.20
10062;DHT22;5070;52.382;5.270;2023-12-29T07:02:28;18.70;63.40
10062;DHT22;5070;52.382;5.270;2023-12-29T07:04:56;18.70;63.40
10062;DHT22;5070;52.382;5.270;2023-12-29T07:07:24;18.70;63.60
10062;DHT22;5070;52.382;5.270;2023-12-29T07:09:53;18.60;63.20
10062;DHT22;5070;52.382;5.270;2023-12-29T07:12:21;18.60;63.10
10062;DHT22;5070;52.382;5.270;2023-12-29T07:14:49;18.70;63.10
10062;DHT22;5070;52.382;5.270;2023-12-29T07:17:21;18.60;63.00
10062;DHT22;5070;52.382;5.270;2023-12-29T07:19:49;18.60;63.20
10062;DHT22;5070;52.382;5.270;2023-12-29T07:22:17;18.60;63.20
10062;DHT22;5070;52.382;5.270;2023-12-29T07:24:46;18.50;63.30
10062;DHT22;5070;52.382;5.270;2023-12-29T07:27:14;18.50;63.40
10062;DHT22;5070;52.382;5.270;2023-12-29T07:29:42;18.50;63.50
10062;DHT22;5070;52.382;5.270;2023-12-29T07:32:10;18.50;63.60
10062;DHT22;5070;52.382;5.270;2023-12-29T07:34:39;18.50;63.70
10062;DHT22;5070;52.382;5.270;2023-12-29T07:37:08;18.40;63.70
10062;DHT22;5070;52.382;5.270;2023-12-29T07:39:36;18.40;63.80
10062;DHT22;5070;52.382;5.270;2023-12-29T07:42:05;18.40;63.90
10062;DHT22;5070;52.382;5.270;2023-12-29T07:44:33;18.40;64.00
10062;DHT22;5070;52.382;5.270;2023-12-29T07:47:01;18.40;64.10
10062;DHT22;5070;52.382;5.270;2023-12-29T07:49:29;18.40;64.20
10062;DHT22;5070;52.382;5.270;2023-12-29T07:51:59;18.30;64.20
10062;DHT22;5070;52.382;5.270;2023-12-29T07:54:27;18.30;64.20
10062;DHT22;5070;52.382;5.270;2023-12-29T07:56:55;18.30;64.40
10062;DHT22;5070;52.382;5.270;2023-12-29T07:59:23;18.30;64.40
10062;DHT22;5070;52.382;5.270;2023-12-29T08:01:51;18.30;64.60
10062;DHT22;5070;52.382;5.270;2023-12-29T08:04:19;18.30;64.70
10062;DHT22;5070;52.382;5.270;2023-12-29T08:06:47;18.30;64.80
10062;DHT22;5070;52.382;5.270;2023-12-29T08:09:17;18.30;64.80
10062;DHT22;5070;52.382;5.270;2023-12-29T08:11:44;18.30;64.80
10062;DHT22;5070;52.382;5.270;2023-12-29T08:14:13;18.30;64.80
10062;DHT22;5070;52.382;5.270;2023-12-29T08:16:44;18.30;64.80
10062;DHT22;5070;52.382;5.270;2023-12-29T08:19:12;18.30;64.60
10062;DHT22;5070;52.382;5.270;2023-12-29T08:21:42;18.40;64.50
10062;DHT22;5070;52.382;5.270;2023-12-29T08:24:10;18.50;64.40
10062;DHT22;5070;52.382;5.270;2023-12-29T08:26:44;18.50;64.10
10062;DHT22;5070;52.382;5.270;2023-12-29T08:29:13;18.60;63.90
10062;DHT22;5070;52.382;5.270;2023-12-29T08:31:41;18.70;63.60
10062;DHT22;5070;52.382;5.270;2023-12-29T08:34:10;18.80;63.50
10062;DHT22;5070;52.382;5.270;2023-12-29T08:36:38;18.80;63.40
10062;DHT22;5070;52.382;5.270;2023-12-29T08:39:06;18.80;63.40
10062;DHT22;5070;52.382;5.270;2023-12-29T08:41:34;18.80;63.40
10062;DHT22;5070;52.382;5.270;2023-12-29T08:44:03;18.80;63.60
10062;DHT22;5070;52.382;5.270;2023-12-29T08:46:31;18.80;63.90
10062;DHT22;5070;52.382;5.270;2023-12-29T08:48:59;18.80;64.00
10062;DHT22;5070;52.382;5.270;2023-12-29T08:51:28;18.80;64.10
10062;DHT22;5070;52.382;5.270;2023-12-29T08:53:56;18.70;64.00
10062;DHT22;5070;52.382;5.270;2023-12-29T08:56:24;18.70;63.90
10062;DHT22;5070;52.382;5.270;2023-12-29T08:58:55;18.70;63.90
10062;DHT22;5070;52.382;5.270;2023-12-29T09:01:24;18.70;63.90
10062;DHT22;5070;52.382;5.270;2023-12-29T09:03:52;18.70;64.00
10062;DHT22;5070;52.382;5.270;2023-12-29T09:06:20;18.70;64.00
10062;DHT22;5070;52.382;5.270;2023-12-29T09:08:48;18.60;64.10
10062;DHT22;5070;52.382;5.270;2023-12-29T09:11:16;18.60;64.30
10062;DHT22;5070;52.382;5.270;2023-12-29T09:13:44;18.60;64.40
10062;DHT22;5070;52.382;5.270;2023-12-29T09:16:12;18.60;64.60
10062;DHT22;5070;52.382;5.270;2023-12-29T09:18:41;18.50;64.60
10062;DHT22;5070;52.382;5.270;2023-12-29T09:21:09;18.50;64.70
10062;DHT22;5070;52.382;5.270;2023-12-29T09:23:38;18.50;64.80
10062;DHT22;5070;52.382;5.270;2023-12-29T09:26:07;18.50;64.90
10062;DHT22;5070;52.382;5.270;2023-12-29T09:28:35;18.50;65.10
10062;DHT22;5070;52.382;5.270;2023-12-29T09:31:03;18.50;65.10
10062;DHT22;5070;52.382;5.270;2023-12-29T09:33:31;18.50;65.30
10062;DHT22;5070;52.382;5.270;2023-12-29T09:36:00;18.50;65.40
10062;DHT22;5070;52.382;5.270;2023-12-29T09:38:29;18.40;65.50
10062;DHT22;5070;52.382;5.270;2023-12-29T09:40:59;18.40;65.50
10062;DHT22;5070;52.382;5.270;2023-12-29T09:43:31;18.40;65.60
10062;DHT22;5070;52.382;5.270;2023-12-29T09:45:59;18.40;65.70
10062;DHT22;5070;52.382;5.270;2023-12-29T09:48:31;18.40;65.80
10062;DHT22;5070;52.382;5.270;2023-12-29T09:51:00;18.40;65.90
10062;DHT22;5070;52.382;5.270;2023-12-29T09:53:29;18.30;65.90
10062;DHT22;5070;52.382;5.270;2023-12-29T09:55:59;18.30;66.00
10062;DHT22;5070;52.382;5.270;2023-12-29T09:58:28;18.30;66.20
10062;DHT22;5070;52.382;5.270;2023-12-29T10:00:56;18.30;66.20
10062;DHT22;5070;52.382;5.270;2023-12-29T10:03:24;18.30;66.30
10062;DHT22;5070;52.382;5.270;2023-12-29T10:05:54;18.30;66.30
10062;DHT22;5070;52.382;5.270;2023-12-29T10:08:26;18.30;66.50
10062;DHT22;5070;52.382;5.270;2023-12-29T10:10:55;18.30;66.50
10062;DHT22;5070;52.382;5.270;2023-12-29T10:13:25;18.20;67.20
10062;DHT22;5070;52.382;5.270;2023-12-29T10:15:59;18.20;66.60
10062;DHT22;5070;52.382;5.270;2023-12-29T10:18:36;18.20;66.60
10062;DHT22;5070;52.382;5.270;2023-12-29T10:21:10;18.20;66.70
10062;DHT22;5070;52.382;5.270;2023-12-29T10:23:49;18.20;66.70
10062;DHT22;5070;52.382;5.270;2023-12-29T10:26:19;18.20;66.90
10062;DHT22;5070;52.382;5.270;2023-12-29T10:28:47;18.20;66.90
10062;DHT22;5070;52.382;5.270;2023-12-29T10:31:15;18.20;67.00
10062;DHT22;5070;52.382;5.270;2023-12-29T10:33:43;18.20;67.00
10062;DHT22;5070;52.382;5.270;2023-12-29T10:36:17;18.20;67.00
10062;DHT22;5070;52.382;5.270;2023-12-29T10:38:47;18.20;66.20
10062;DHT22;5070;52.382;5.270;2023-12-29T10:41:18;18.30;66.20
10062;DHT22;5070;52.382;5.270;2023-12-29T10:43:47;18.30;66.00
10062;DHT22;5070;52.382;5.270;2023-12-29T10:46:18;18.40;66.00
10062;DHT22;5070;52.382;5.270;2023-12-29T10:48:48;18.40;65.80
10062;DHT22;5070;52.382;5.270;2023-12-29T10:51:26;18.50;65.80
10062;DHT22;5070;52.382;5.270;2023-12-29T10:53:56;18.60;65.50
10062;DHT22;5070;52.382;5.270;2023-12-29T10:56:24;18.60;65.50
10062;DHT22;5070;52.382;5.270;2023-12-29T10:59:00;18.60;65.60
10062;DHT22;5070;52.382;5.270;2023-12-29T11:01:29;18.60;65.80
10062;DHT22;5070;52.382;5.270;2023-12-29T11:03:59;18.60;66.00
10062;DHT22;5070;52.382;5.270;2023-12-29T11:06:27;18.60;66.10
10062;DHT22;5070;52.382;5.270;2023-12-29T11:08:57;18.60;66.10
10062;DHT22;5070;52.382;5.270;2023-12-29T11:11:26;18.60;65.90
10062;DHT22;5070;52.382;5.270;2023-12-29T11:13:54;18.60;66.00
10062;DHT22;5070;52.382;5.270;2023-12-29T11:16:23;18.60;65.80
10062;DHT22;5070;52.382;5.270;2023-12-29T11:18:53;18.60;65.70
10062;DHT22;5070;52.382;5.270;2023-12-29T11:21:26;18.60;65.60
10062;DHT22;5070;52.382;5.270;2023-12-29T11:23:54;18.60;65.50
10062;DHT22;5070;52.382;5.270;2023-12-29T11:26:25;18.60;65.50
10062;DHT22;5070;52.382;5.270;2023-12-29T11:28:54;18.60;65.50
10062;DHT22;5070;52.382;5.270;2023-12-29T11:31:22;18.60;65.40
10062;DHT22;5070;52.382;5.270;2023-12-29T11:33:57;18.50;65.40
10062;DHT22;5070;52.382;5.270;2023-12-29T11:36:31;18.50;65.50
10062;DHT22;5070;52.382;5.270;2023-12-29T11:39:06;18.50;65.50
10062;DHT22;5070;52.382;5.270;2023-12-29T11:41:44;18.50;65.50
10062;DHT22;5070;52.382;5.270;2023-12-29T11:44:24;18.50;65.70
10062;DHT22;5070;52.382;5.270;2023-12-29T11:46:53;18.50;65.70
10062;DHT22;5070;52.382;5.270;2023-12-29T11:49:21;18.50;65.70
10062;DHT22;5070;52.382;5.270;2023-12-29T11:51:50;18.50;65.70
10062;DHT22;5070;52.382;5.270;2023-12-29T11:54:22;18.40;65.50
10062;DHT22;5070;52.382;5.270;2023-12-29T11:56:53;18.40;65.60
10062;DHT22;5070;52.382;5.270;2023-12-29T11:59:22;18.40;65.50
10062;DHT22;5070;52.382;5.270;2023-12-29T12:01:52;18.40;65.60
10062;DHT22;5070;52.382;5.270;2023-12-29T12:04:34;18.40;65.60
10062;DHT22;5070;52.382;5.270;2023-12-29T12:07:04;18.40;65.80
10062;DHT22;5070;52.382;5.270;2023-12-29T12:09:34;18.40;65.70
10062;DHT22;5070;52.382;5.270;2023-12-29T12:12:04;18.40;65.80
10062;DHT22;5070;52.382;5.270;2023-12-29T12:14:49;18.40;65.70
10062;DHT22;5070;52.382;5.270;2023-12-29T12:17:31;18.30;65.60
10062;DHT22;5070;52.382;5.270;2023-12-29T12:20:07;18.30;65.60
10062;DHT22;5070;52.382;5.270;2023-12-29T12:22:36;18.40;65.60
10062;DHT22;5070;52.382;5.270;2023-12-29T12:25:06;18.30;65.80
10062;DHT22;5070;52.382;5.270;2023-12-29T12:27:37;18.30;65.60
10062;DHT22;5070;52.382;5.270;2023-12-29T12:30:07;18.30;65.60
10062;DHT22;5070;52.382;5.270;2023-12-29T12:32:37;18.30;65.60
10062;DHT22;5070;52.382;5.270;2023-12-29T12:35:13;18.30;65.60
10062;DHT22;5070;52.382;5.270;2023-12-29T12:37:46;18.30;65.60
10062;DHT22;5070;52.382;5.270;2023-12-29T12:40:24;18.30;65.50
10062;DHT22;5070;52.382;5.270;2023-12-29T12:42:54;18.20;65.40
10062;DHT22;5070;52.382;5.270;2023-12-29T12:45:26;18.20;65.40
10062;DHT22;5070;52.382;5.270;2023-12-29T12:48:01;18.20;65.40
10062;DHT22;5070;52.382;5.270;2023-12-29T12:50:30;18.20;65.20
10062;DHT22;5070;52.382;5.270;2023-12-29T12:52:58;18.20;65.20
10062;DHT22;5070;52.382;5.270;2023-12-29T12:55:30;18.20;64.90
10062;DHT22;5070;52.382;5.270;2023-12-29T12:58:01;18.20;64.70
10062;DHT22;5070;52.382;5.270;2023-12-29T13:00:29;18.20;64.60
10062;DHT22;5070;52.382;5.270;2023-12-29T13:02:58;18.20;64.60
10062;DHT22;5070;52.382;5.270;2023-12-29T13:05:28;18.20;64.60
10062;DHT22;5070;52.382;5.270;2023-12-29T13:07:57;18.20;64.60
10062;DHT22;5070;52.382;5.270;2023-12-29T13:10:25;18.20;64.70
10062;DHT22;5070;52.382;5.270;2023-12-29T13:12:53;18.20;64.80
10062;DHT22;5070;52.382;5.270;2023-12-29T13:15:23;18.20;64.70
10062;DHT22;5070;52.382;5.270;2023-12-29T13:17:51;18.10;64.70
10062;DHT22;5070;52.382;5.270;2023-12-29T13:20:20;18.20;64.80
10062;DHT22;5070;52.382;5.270;2023-12-29T13:22:49;18.10;64.70
10062;DHT22;5070;52.382;5.270;2023-12-29T13:25:19;18.10;64.70
10062;DHT22;5070;52.382;5.270;2023-12-29T13:27:48;18.10;64.70
10062;DHT22;5070;52.382;5.270;2023-12-29T13:30:18;18.10;64.70
10062;DHT22;5070;52.382;5.270;2023-12-29T13:32:49;18.10;64.70
10062;DHT22;5070;52.382;5.270;2023-12-29T13:35:21;18.10;64.80
10062;DHT22;5070;52.382;5.270;2023-12-29T13:37:54;18.10;64.90
10062;DHT22;5070;52.382;5.270;2023-12-29T13:40:36;18.10;65.10
10062;DHT22;5070;52.382;5.270;2023-12-29T13:43:08;18.10;65.40
10062;DHT22;5070;52.382;5.270;2023-12-29T13:45:37;18.10;65.10
10062;DHT22;5070;52.382;5.270;2023-12-29T13:48:11;18.20;64.90
10062;DHT22;5070;52.382;5.270;2023-12-29T13:50:44;18.30;64.80
10062;DHT22;5070;52.382;5.270;2023-12-29T13:53:17;18.40;64.50
10062;DHT22;5070;52.382;5.270;2023-12-29T13:55:45;18.50;64.30
10062;DHT22;5070;52.382;5.270;2023-12-29T13:58:13;18.50;64.10
10062;DHT22;5070;52.382;5.270;2023-12-29T14:00:43;18.60;64.10
10062;DHT22;5070;52.382;5.270;2023-12-29T14:03:16;18.60;64.30
10062;DHT22;5070;52.382;5.270;2023-12-29T14:05:56;18.60;64.10
10062;DHT22;5070;52.382;5.270;2023-12-29T14:08:32;18.60;64.40
10062;DHT22;5070;52.382;5.270;2023-12-29T14:11:06;18.60;64.70
10062;DHT22;5070;52.382;5.270;2023-12-29T14:13:40;18.60;64.80
10062;DHT22;5070;52.382;5.270;2023-12-29T14:16:09;18.50;65.00
10062;DHT22;5070;52.382;5.270;2023-12-29T14:18:53;18.50;65.10
10062;DHT22;5070;52.382;5.270;2023-12-29T14:21:23;18.50;64.60
10062;DHT22;5070;52.382;5.270;2023-12-29T14:23:59;18.50;64.40
10062;DHT22;5070;52.382;5.270;2023-12-29T14:26:27;18.50;64.20
10062;DHT22;5070;52.382;5.270;2023-12-29T14:29:03;18.50;64.10
10062;DHT22;5070;52.382;5.270;2023-12-29T14:31:34;18.50;64.10
10062;DHT22;5070;52.382;5.270;2023-12-29T14:34:05;18.50;64.30
10062;DHT22;5070;52.382;5.270;2023-12-29T14:36:33;18.40;64.10
10062;DHT22;5070;52.382;5.270;2023-12-29T14:39:03;18.40;64.20
10062;DHT22;5070;52.382;5.270;2023-12-29T14:41:33;18.40;64.20
10062;DHT22;5070;52.382;5.270;2023-12-29T14:44:01;18.40;64.10
10062;DHT22;5070;52.382;5.270;2023-12-29T14:46:29;18.40;64.10
10062;DHT22;5070;52.382;5.270;2023-12-29T14:48:58;18.40;64.00
10062;DHT22;5070;52.382;5.270;2023-12-29T14:51:27;18.30;63.80
10062;DHT22;5070;52.382;5.270;2023-12-29T14:53:55;18.30;63.60
10062;DHT22;5070;52.382;5.270;2023-12-29T14:56:23;18.30;63.40
10062;DHT22;5070;52.382;5.270;2023-12-29T14:58:51;18.30;63.20
10062;DHT22;5070;52.382;5.270;2023-12-29T15:01:19;18.30;62.80
10062;DHT22;5070;52.382;5.270;2023-12-29T15:03:47;18.30;62.70
10062;DHT22;5070;52.382;5.270;2023-12-29T15:06:15;18.20;62.60
10062;DHT22;5070;52.382;5.270;2023-12-29T15:08:45;18.30;62.70
10062;DHT22;5070;52.382;5.270;2023-12-29T15:11:13;18.20;62.50
10062;DHT22;5070;52.382;5.270;2023-12-29T15:13:41;18.20;62.50
10062;DHT22;5070;52.382;5.270;2023-12-29T15:16:09;18.20;62.40
10062;DHT22;5070;52.382;5.270;2023-12-29T15:18:37;18.20;62.40
10062;DHT22;5070;52.382;5.270;2023-12-29T15:21:05;18.20;62.30
10062;DHT22;5070;52.382;5.270;2023-12-29T15:23:33;18.20;62.30
10062;DHT22;5070;52.382;5.270;2023-12-29T15:26:03;18.20;62.40
10062;DHT22;5070;52.382;5.270;2023-12-29T15:28:31;18.10;62.20
10062;DHT22;5070;52.382;5.270;2023-12-29T15:30:59;18.20;62.20
10062;DHT22;5070;52.382;5.270;2023-12-29T15:33:27;18.10;62.20
10062;DHT22;5070;52.382;5.270;2023-12-29T15:35:55;18.20;63.90
10062;DHT22;5070;52.382;5.270;2023-12-29T15:38:23;18.20;63.70
10062;DHT22;5070;52.382;5.270;2023-12-29T15:40:51;18.30;63.10
10062;DHT22;5070;52.382;5.270;2023-12-29T15:43:21;18.30;62.70
10062;DHT22;5070;52.382;5.270;2023-12-29T15:45:50;18.30;62.50
10062;DHT22;5070;52.382;5.270;2023-12-29T15:48:18;18.40;62.30
10062;DHT22;5070;52.382;5.270;2023-12-29T15:50:47;18.50;62.10
10062;DHT22;5070;52.382;5.270;2023-12-29T15:53:15;18.50;61.90
10062;DHT22;5070;52.382;5.270;2023-12-29T15:55:43;18.60;61.80
10062;DHT22;5070;52.382;5.270;2023-12-29T15:58:11;18.60;61.90